Time;durP1;ratioP1;P1;durP2;ratioP2;P2;SDS_P1;SDS_P2;PMS_P1;PMS_P2;Temp;Humidity;BMP_temperature;BMP_pressure;BME280_temperature;BME280_humidity;BME280_pressure;Samples;Min_cycle;Max_cycle;Signal;HPM_P1;HPM_P2
2023/12/22 00:00:15;;;;;;;3.10;0.82;;;;;;;6.52;51.07;99812.69;5044103;28;20033;-75
2023/12/22 00:02:43;;;;;;;3.67;0.88;;;;;;;6.51;51.47;99813.69;5044970;28;20041;-76
2023/12/22 00:05:11;;;;;;;3.25;1.00;;;;;;;6.49;51.31;99806.66;5042935;28;20037;-75
2023/12/22 00:07:40;;;;;;;4.30;0.90;;;;;;;6.48;51.33;99802.22;5047849;28;20044;-75
2023/12/22 00:10:09;;;;;;;3.65;0.70;;;;;;;6.48;51.66;99794.06;5045820;28;20642;-75
2023/12/22 00:12:38;;;;;;;2.25;0.75;;;;;;;6.46;51.89;99794.19;5040550;28;20552;-74
2023/12/22 00:15:07;;;;;;;2.30;0.98;;;;;;;6.45;51.80;99809.63;5045851;28;20041;-74
2023/12/22 00:17:35;;;;;;;3.05;0.80;;;;;;;6.44;51.63;99788.91;5040531;28;20061;-75
2023/12/22 00:20:04;;;;;;;2.05;0.63;;;;;;;6.44;51.92;99786.19;5043470;28;20463;-74
2023/12/22 00:22:32;;;;;;;2.90;0.73;;;;;;;6.44;52.12;99828.81;5028026;28;21677;-75
2023/12/22 00:25:00;;;;;;;2.00;0.85;;;;;;;6.42;51.60;99845.25;5029245;28;20562;-75
2023/12/22 00:27:28;;;;;;;2.22;0.80;;;;;;;6.42;51.59;99833.50;5047322;28;20057;-75
2023/12/22 00:29:56;;;;;;;2.20;0.90;;;;;;;6.39;51.62;99812.88;5061658;28;20098;-75
2023/12/22 00:32:25;;;;;;;2.50;0.80;;;;;;;6.40;51.72;99803.75;5046611;28;20033;-75
2023/12/22 00:34:53;;;;;;;3.15;0.88;;;;;;;6.39;51.96;99814.75;5038399;28;20049;-75
2023/12/22 00:37:21;;;;;;;2.95;0.70;;;;;;;6.38;51.78;99813.00;5043251;28;20049;-75
2023/12/22 00:39:49;;;;;;;1.75;0.80;;;;;;;6.36;51.77;99820.47;5039493;28;20056;-75
2023/12/22 00:42:17;;;;;;;4.00;0.90;;;;;;;6.35;51.87;99821.44;5047808;28;20045;-74
2023/12/22 00:44:45;;;;;;;2.15;0.70;;;;;;;6.36;52.10;99823.19;5044663;28;20046;-74
2023/12/22 00:47:13;;;;;;;3.92;0.80;;;;;;;6.35;51.58;99808.72;5049113;28;20403;-75
2023/12/22 00:49:42;;;;;;;2.45;0.90;;;;;;;6.35;51.88;99838.63;5048603;28;20044;-74
2023/12/22 00:52:10;;;;;;;4.70;0.82;;;;;;;6.34;51.82;99838.75;5046343;28;20084;-75
2023/12/22 00:54:38;;;;;;;4.13;0.95;;;;;;;6.33;51.48;99835.16;5050634;28;20053;-75
2023/12/22 00:57:06;;;;;;;5.40;1.00;;;;;;;6.32;51.89;99860.63;5048891;28;20072;-74
2023/12/22 00:59:34;;;;;;;2.97;0.90;;;;;;;6.32;51.93;99841.59;5041892;28;20043;-75
2023/12/22 01:02:02;;;;;;;3.00;0.85;;;;;;;6.30;51.64;99845.41;5059978;28;20114;-75
2023/12/22 01:04:30;;;;;;;3.83;0.77;;;;;;;6.30;51.94;99856.28;5038161;28;20041;-74
2023/12/22 01:06:59;;;;;;;3.72;0.90;;;;;;;6.30;51.69;99842.69;5037806;28;20033;-75
2023/12/22 01:09:27;;;;;;;3.20;0.85;;;;;;;6.28;51.81;99844.72;5045909;28;20041;-75
2023/12/22 01:11:55;;;;;;;2.25;0.93;;;;;;;6.27;52.12;99840.28;5043420;28;20443;-74
2023/12/22 01:14:23;;;;;;;2.45;0.70;;;;;;;6.27;52.13;99851.13;5040110;28;20033;-75
2023/12/22 01:16:51;;;;;;;4.68;0.93;;;;;;;6.26;52.05;99850.28;5046630;28;20128;-75
2023/12/22 01:19:19;;;;;;;3.17;0.90;;;;;;;6.28;52.15;99833.84;5043218;28;20048;-75
2023/12/22 01:21:47;;;;;;;2.40;0.77;;;;;;;6.27;52.22;99823.97;5039843;28;20096;-74
2023/12/22 01:24:21;;;;;;;2.25;0.70;;;;;;;6.27;52.34;99810.38;5055409;28;20055;-75
2023/12/22 01:26:49;;;;;;;2.88;1.00;;;;;;;6.27;52.51;99819.41;5043802;28;20453;-75
2023/12/22 01:29:17;;;;;;;3.35;0.93;;;;;;;6.29;52.53;99824.66;5049678;28;20098;-75
2023/12/22 01:31:44;;;;;;;4.38;0.90;;;;;;;6.30;52.40;99837.28;5066289;28;20116;-75
2023/12/22 01:34:12;;;;;;;3.28;0.98;;;;;;;6.30;52.35;99854.44;5063230;28;20691;-75
2023/12/22 01:36:41;;;;;;;3.28;1.33;;;;;;;6.31;52.61;99860.75;5052122;28;20127;-74
2023/12/22 01:39:09;;;;;;;2.33;0.90;;;;;;;6.33;52.55;99867.78;5044921;28;20064;-75
2023/12/22 01:41:38;;;;;;;4.32;0.88;;;;;;;6.34;52.36;99850.47;5043424;28;20033;-74
2023/12/22 01:44:06;;;;;;;5.00;1.10;;;;;;;6.34;52.49;99857.75;5046014;28;20412;-74
2023/12/22 01:46:35;;;;;;;5.25;1.58;;;;;;;6.33;52.47;99861.47;5044070;28;20044;-74
2023/12/22 01:49:03;;;;;;;3.90;1.05;;;;;;;6.34;52.49;99863.19;5043336;28;20316;-74
2023/12/22 01:51:33;;;;;;;4.22;1.40;;;;;;;6.36;52.83;99855.78;5049927;28;20037;-76
2023/12/22 01:54:01;;;;;;;6.18;1.10;;;;;;;6.33;52.58;99835.16;5051562;28;20153;-75
2023/12/22 01:56:29;;;;;;;5.30;1.10;;;;;;;6.34;52.35;99838.75;5046091;28;20563;-75
2023/12/22 01:59:02;;;;;;;4.10;1.40;;;;;;;6.33;52.47;99826.16;5047120;28;20067;-77
2023/12/22 02:01:30;;;;;;;2.33;0.80;;;;;;;6.30;52.40;99849.00;5044257;28;20056;-75
2023/12/22 02:04:00;;;;;;;2.85;0.98;;;;;;;6.32;52.09;99867.91;5043091;28;20048;-75
2023/12/22 02:06:30;;;;;;;3.42;1.10;;;;;;;6.30;52.00;99865.31;5045978;28;20183;-74
2023/12/22 02:08:59;;;;;;;3.47;1.02;;;;;;;6.32;52.37;99870.63;5047795;28;20416;-75
2023/12/22 02:11:27;;;;;;;4.10;1.00;;;;;;;6.30;52.23;99875.31;5044246;28;20396;-74
2023/12/22 02:13:55;;;;;;;3.38;1.25;;;;;;;6.31;52.31;99874.31;5057046;28;20482;-74
2023/12/22 02:16:33;;;;;;;6.07;1.60;;;;;;;6.34;51.91;99885.81;5047101;28;20045;-75
2023/12/22 02:19:10;;;;;;;4.97;1.00;;;;;;;6.34;52.05;99901.25;5038893;28;20045;-75
2023/12/22 02:22:02;;;;;;;3.70;1.00;;;;;;;6.34;52.06;99879.50;5043429;28;20120;-74
2023/12/22 02:24:37;;;;;;;4.25;1.17;;;;;;;6.34;52.47;99888.53;5036975;28;20036;-75
2023/12/22 02:27:07;;;;;;;4.95;1.30;;;;;;;6.35;52.47;99895.69;5045608;28;20053;-75
2023/12/22 02:29:38;;;;;;;4.68;1.23;;;;;;;6.36;52.10;99905.56;5045971;28;20068;-74
2023/12/22 02:32:11;;;;;;;6.80;1.27;;;;;;;6.38;52.27;99899.97;5045403;28;20045;-75
2023/12/22 02:34:42;;;;;;;3.45;0.98;;;;;;;6.35;52.26;99884.81;5043847;28;20523;-74
2023/12/22 02:37:12;;;;;;;4.72;1.23;;;;;;;6.37;52.20;99898.25;5044471;28;20067;-74
2023/12/22 02:39:43;;;;;;;3.92;0.95;;;;;;;6.39;52.31;99888.97;5044274;28;20107;-74
2023/12/22 02:42:12;;;;;;;2.08;0.68;;;;;;;6.38;52.19;99911.72;5062239;28;20659;-74
2023/12/22 02:44:40;;;;;;;2.67;0.60;;;;;;;6.38;51.83;99927.16;5043582;28;20042;-74
2023/12/22 02:47:08;;;;;;;2.22;0.77;;;;;;;6.37;52.02;99909.13;5038452;28;20053;-74
2023/12/22 02:49:36;;;;;;;2.28;0.70;;;;;;;6.34;51.91;99903.97;5041975;28;20068;-75
2023/12/22 02:52:04;;;;;;;2.03;0.60;;;;;;;6.32;51.86;99895.06;5044186;28;20041;-75
2023/12/22 02:54:33;;;;;;;4.60;0.90;;;;;;;6.29;51.48;99879.88;5043965;28;20060;-75
2023/12/22 02:57:02;;;;;;;1.92;0.60;;;;;;;6.28;51.68;99896.34;5042889;28;20420;-74
2023/12/22 02:59:30;;;;;;;3.25;0.82;;;;;;;6.23;51.49;99898.56;5042405;28;20470;-74
2023/12/22 03:01:58;;;;;;;2.15;0.70;;;;;;;6.22;51.69;99889.56;5039302;28;20077;-74
2023/12/22 03:04:27;;;;;;;2.03;0.57;;;;;;;6.21;51.88;99881.53;5043647;28;20044;-75
2023/12/22 03:06:55;;;;;;;2.95;0.75;;;;;;;6.19;51.86;99889.84;5042130;28;20108;-74
2023/12/22 03:09:23;;;;;;;1.83;0.65;;;;;;;6.18;51.95;99871.81;5041168;28;20041;-75
2023/12/22 03:11:51;;;;;;;2.78;0.80;;;;;;;6.17;51.89;99863.78;5047462;28;20106;-74
2023/12/22 03:14:21;;;;;;;3.00;0.52;;;;;;;6.17;52.27;99861.94;5043369;28;20587;-75
2023/12/22 03:16:49;;;;;;;1.25;0.60;;;;;;;6.16;51.91;99864.75;5035564;28;20050;-74
2023/12/22 03:19:17;;;;;;;1.52;0.60;;;;;;;6.15;52.21;99860.31;5044926;28;20053;-75
2023/12/22 03:21:44;;;;;;;2.20;0.60;;;;;;;6.14;52.22;99856.75;5047201;28;20637;-74
2023/12/22 03:24:12;;;;;;;1.80;0.60;;;;;;;6.13;52.26;99857.72;5047247;28;20041;-75
2023/12/22 03:26:40;;;;;;;4.28;0.80;;;;;;;6.14;52.41;99859.47;5040197;28;20405;-75
2023/12/22 03:29:08;;;;;;;2.92;0.80;;;;;;;6.13;52.39;99867.72;5045092;28;20432;-74
2023/12/22 03:31:38;;;;;;;3.13;0.68;;;;;;;6.15;52.59;99882.06;5035592;28;20041;-74
2023/12/22 03:34:06;;;;;;;2.75;0.80;;;;;;;6.13;52.79;99876.75;5042202;28;20068;-74
2023/12/22 03:36:34;;;;;;;1.80;0.65;;;;;;;6.14;52.91;99881.19;5039851;28;20079;-74
2023/12/22 03:39:02;;;;;;;2.33;0.80;;;;;;;6.14;52.55;99893.91;5062573;28;20043;-74
2023/12/22 03:41:31;;;;;;;2.80;0.73;;;;;;;6.14;52.63;99883.91;5042620;28;20037;-74
2023/12/22 03:43:59;;;;;;;2.25;0.90;;;;;;;6.15;52.86;99884.78;5032284;28;20102;-74
2023/12/22 03:46:27;;;;;;;1.90;0.68;;;;;;;6.15;52.80;99882.06;5044932;28;20124;-74
2023/12/22 03:48:56;;;;;;;2.13;0.60;;;;;;;6.15;52.63;99885.63;5041812;28;20451;-74
2023/12/22 03:51:24;;;;;;;1.83;0.60;;;;;;;6.14;52.56;99889.34;5041899;28;20500;-73
2023/12/22 03:53:52;;;;;;;2.58;0.80;;;;;;;6.14;52.63;99885.75;5041764;28;20132;-73
2023/12/22 03:56:20;;;;;;;3.28;1.05;;;;;;;6.14;52.87;99869.47;5044531;28;20045;-73
2023/12/22 03:58:48;;;;;;;2.42;0.80;;;;;;;6.13;52.95;99876.75;5038642;28;20073;-75
2023/12/22 04:01:16;;;;;;;2.95;0.70;;;;;;;6.13;52.48;99881.31;5046178;28;20118;-73
2023/12/22 04:03:44;;;;;;;1.58;0.65;;;;;;;6.12;52.59;99880.44;5040590;28;20091;-74
2023/12/22 04:06:13;;;;;;;2.22;0.73;;;;;;;6.14;52.99;99872.19;5037251;28;20049;-74
2023/12/22 04:08:41;;;;;;;1.67;0.70;;;;;;;6.13;52.99;99876.75;5041947;28;20770;-73
2023/12/22 04:11:09;;;;;;;2.58;0.80;;;;;;;6.13;52.99;99881.31;5045323;28;20141;-74
2023/12/22 04:13:37;;;;;;;4.18;1.00;;;;;;;6.12;53.05;99875.00;5043166;28;20124;-74
2023/12/22 04:16:05;;;;;;;3.83;1.00;;;;;;;6.13;52.78;99870.44;5044282;28;20587;-73
2023/12/22 04:18:34;;;;;;;3.28;1.00;;;;;;;6.10;52.76;99879.75;5066361;28;20075;-73
2023/12/22 04:21:02;;;;;;;4.15;0.90;;;;;;;6.10;52.63;99903.31;5025073;28;20119;-73
2023/12/22 04:23:31;;;;;;;3.78;1.05;;;;;;;6.07;52.69;99905.31;5041601;28;20558;-74
2023/12/22 04:25:59;;;;;;;5.07;1.27;;;;;;;6.05;52.61;99890.97;5050017;28;20041;-74
2023/12/22 04:28:27;;;;;;;4.90;1.38;;;;;;;6.03;52.50;99883.97;5048279;28;20132;-73
2023/12/22 04:30:55;;;;;;;5.43;1.58;;;;;;;6.02;52.50;99872.25;5047912;28;20609;-73
2023/12/22 04:33:23;;;;;;;4.18;1.40;;;;;;;6.00;52.60;99865.22;5035254;28;20076;-73
2023/12/22 04:35:51;;;;;;;5.72;1.88;;;;;;;5.98;52.41;99859.03;5047138;28;20045;-74
2023/12/22 04:38:19;;;;;;;4.82;1.20;;;;;;;5.97;52.36;99841.00;5049527;28;20594;-73
2023/12/22 04:40:48;;;;;;;6.25;1.35;;;;;;;5.96;52.67;99859.16;5049423;28;20048;-74
2023/12/22 04:43:16;;;;;;;5.90;1.30;;;;;;;5.94;52.66;99855.72;5045959;28;20045;-74
2023/12/22 04:45:44;;;;;;;5.93;1.45;;;;;;;5.94;52.70;99865.72;5049628;28;20045;-74
2023/12/22 04:48:12;;;;;;;7.13;1.80;;;;;;;5.94;52.84;99873.88;5044842;28;20111;-73
2023/12/22 04:50:40;;;;;;;7.80;1.52;;;;;;;5.93;52.67;99881.16;5043912;28;20045;-73
2023/12/22 04:53:08;;;;;;;6.80;1.60;;;;;;;5.93;52.96;99874.88;5046402;28;20125;-73
2023/12/22 04:55:36;;;;;;;4.07;1.35;;;;;;;5.94;53.01;99865.72;5049334;28;20620;-74
2023/12/22 04:58:06;;;;;;;7.80;1.63;;;;;;;5.94;53.29;99888.31;5050746;28;20048;-74
2023/12/22 05:00:34;;;;;;;3.58;1.50;;;;;;;5.94;52.92;99885.59;5045053;28;20091;-73
2023/12/22 05:03:01;;;;;;;5.72;1.58;;;;;;;5.94;53.45;99880.16;5039299;28;20531;-74
2023/12/22 05:05:29;;;;;;;6.18;1.52;;;;;;;5.96;53.41;99882.72;5041623;28;20416;-73
2023/12/22 05:07:57;;;;;;;4.18;1.30;;;;;;;5.97;53.26;99888.03;5048026;28;20037;-73
2023/12/22 05:10:25;;;;;;;5.75;1.63;;;;;;;5.97;53.72;99879.03;5046835;28;20041;-74
2023/12/22 05:12:54;;;;;;;7.10;1.85;;;;;;;5.99;53.50;99880.63;5045641;28;20049;-73
2023/12/22 05:15:23;;;;;;;6.72;1.80;;;;;;;6.02;53.79;99883.09;5044770;28;20063;-74
2023/12/22 05:17:51;;;;;;;5.63;1.40;;;;;;;6.03;53.59;99887.56;5048176;28;20694;-73
2023/12/22 05:20:19;;;;;;;7.65;1.85;;;;;;;6.05;53.80;99890.13;5039232;28;20037;-74
2023/12/22 05:22:47;;;;;;;7.43;1.50;;;;;;;6.08;53.57;99900.72;5048938;28;20073;-73
2023/12/22 05:25:15;;;;;;;5.43;1.55;;;;;;;6.09;53.85;99896.16;5046078;28;20037;-74
2023/12/22 05:27:43;;;;;;;5.65;1.80;;;;;;;6.11;53.71;99908.63;5044281;28;20041;-73
2023/12/22 05:30:12;;;;;;;8.65;2.22;;;;;;;6.14;53.66;99908.34;5041540;28;20044;-74
2023/12/22 05:32:42;;;;;;;6.28;1.73;;;;;;;6.18;53.80;99903.53;5044526;28;20041;-74
2023/12/22 05:35:11;;;;;;;8.52;1.65;;;;;;;6.19;53.85;99905.28;5035982;28;20040;-74
2023/12/22 05:37:39;;;;;;;5.38;1.60;;;;;;;6.20;53.88;99907.84;5044332;28;20087;-74
2023/12/22 05:40:08;;;;;;;7.45;1.63;;;;;;;6.25;53.82;99904.75;5044336;28;20041;-74
2023/12/22 05:42:36;;;;;;;6.97;1.38;;;;;;;6.26;53.81;99917.34;5047608;28;20087;-74
2023/12/22 05:45:04;;;;;;;6.13;1.52;;;;;;;6.30;53.78;99905.19;5050793;28;20472;-74
2023/12/22 05:47:32;;;;;;;4.32;1.50;;;;;;;6.30;53.83;99889.75;5033878;28;20660;-74
2023/12/22 05:50:01;;;;;;;6.03;1.50;;;;;;;6.33;53.75;99892.22;5041762;28;20113;-73
2023/12/22 05:52:29;;;;;;;6.93;1.60;;;;;;;6.35;53.86;99884.81;5058510;28;20091;-74
2023/12/22 05:54:57;;;;;;;8.10;1.45;;;;;;;6.37;53.72;99914.56;5043876;28;20044;-73
2023/12/22 05:57:26;;;;;;;5.75;1.45;;;;;;;6.40;53.51;99917.88;5038756;28;20037;-73
2023/12/22 05:59:54;;;;;;;5.63;1.40;;;;;;;6.40;53.44;99939.63;5044407;28;20073;-73
2023/12/22 06:02:22;;;;;;;5.95;1.60;;;;;;;6.42;53.54;99925.91;5041498;28;20044;-73
2023/12/22 06:04:50;;;;;;;5.38;1.48;;;;;;;6.45;53.56;99925.63;5041470;28;20049;-73
2023/12/22 06:07:20;;;;;;;5.82;1.42;;;;;;;6.48;53.56;99927.25;5039469;28;20072;-73
2023/12/22 06:09:49;;;;;;;7.70;1.70;;;;;;;6.50;53.40;99920.69;5035165;28;20049;-73
2023/12/22 06:12:16;;;;;;;5.57;1.40;;;;;;;6.51;53.33;99935.16;5061489;28;20115;-73
2023/12/22 06:14:44;;;;;;;5.22;1.48;;;;;;;6.52;53.53;99934.16;5046655;28;20045;-73
2023/12/22 06:17:12;;;;;;;5.13;1.50;;;;;;;6.54;53.11;99919.41;5048270;28;20481;-73
2023/12/22 06:19:40;;;;;;;7.63;1.42;;;;;;;6.55;53.07;99925.72;5044090;28;20116;-73
2023/12/22 06:22:08;;;;;;;3.92;1.20;;;;;;;6.56;53.14;99925.59;5039570;28;20041;-73
2023/12/22 06:24:37;;;;;;;7.65;1.30;;;;;;;6.59;53.22;99935.34;5034253;28;20115;-74
2023/12/22 06:27:06;;;;;;;6.70;1.65;;;;;;;6.59;53.23;99930.78;5045213;28;20057;-73
2023/12/22 06:29:34;;;;;;;6.20;1.20;;;;;;;6.60;53.26;99940.66;5036430;28;20049;-72
2023/12/22 06:32:05;;;;;;;7.90;1.63;;;;;;;6.62;53.14;99943.22;5041343;28;20075;-72
2023/12/22 06:34:34;;;;;;;5.83;1.60;;;;;;;6.59;53.42;99930.78;5045764;28;20097;-72
2023/12/22 06:37:03;;;;;;;6.55;1.60;;;;;;;6.61;53.24;99928.75;5048848;28;20449;-71
2023/12/22 06:39:31;;;;;;;7.75;1.60;;;;;;;6.62;53.16;99925.06;5041640;28;20132;-71
2023/12/22 06:42:00;;;;;;;4.75;1.30;;;;;;;6.64;52.86;99936.66;5026837;28;20041;-71
2023/12/22 06:44:29;;;;;;;5.55;1.30;;;;;;;6.65;53.22;99951.13;5036894;28;20042;-71
2023/12/22 06:46:57;;;;;;;5.72;1.45;;;;;;;6.65;53.04;99952.00;5042781;28;20041;-71
2023/12/22 06:49:25;;;;;;;4.88;1.60;;;;;;;6.65;53.01;99941.13;5046174;28;20049;-72
2023/12/22 06:51:53;;;;;;;6.82;1.83;;;;;;;6.67;53.23;99951.88;5048977;28;20037;-71
2023/12/22 06:54:21;;;;;;;6.28;1.50;;;;;;;6.67;53.27;99947.28;5050507;28;20041;-70
2023/12/22 06:56:49;;;;;;;6.50;1.60;;;;;;;6.68;53.25;99945.44;5045272;28;20447;-70
2023/12/22 06:59:19;;;;;;;5.75;1.35;;;;;;;6.69;53.12;99945.31;5037112;28;20448;-70
2023/12/22 07:01:49;;;;;;;5.68;1.60;;;;;;;6.69;53.16;99945.31;5038813;28;20060;-71
2023/12/22 07:04:33;;;;;;;5.60;1.50;;;;;;;6.69;53.16;99955.31;5047976;22;20407;-73
2023/12/22 07:07:01;;;;;;;4.60;1.35;;;;;;;6.70;53.17;99944.28;5049319;28;20041;-73
2023/12/22 07:09:32;;;;;;;3.85;1.10;;;;;;;6.72;52.63;99936.88;5046885;28;20083;-72
2023/12/22 07:12:01;;;;;;;5.22;1.00;;;;;;;6.71;52.94;99937.84;5037136;28;20054;-73
2023/12/22 07:14:30;;;;;;;5.88;1.65;;;;;;;6.73;53.07;99935.00;5043616;28;20043;-73
2023/12/22 07:17:00;;;;;;;6.43;1.52;;;;;;;6.72;53.01;99945.03;5057680;28;20045;-73
2023/12/22 07:19:28;;;;;;;5.70;1.25;;;;;;;6.73;52.75;99954.91;5045036;28;20411;-73
2023/12/22 07:21:56;;;;;;;4.72;1.30;;;;;;;6.73;52.85;99954.06;5043114;28;20415;-72
2023/12/22 07:24:24;;;;;;;5.28;1.42;;;;;;;6.73;52.87;99951.34;5028996;28;20140;-72
2023/12/22 07:26:51;;;;;;;6.13;2.00;;;;;;;6.73;52.90;99957.63;5044430;28;20072;-74
2023/12/22 07:29:21;;;;;;;5.45;1.40;;;;;;;6.75;53.22;99950.25;5040759;28;20045;-73
2023/12/22 07:31:52;;;;;;;5.65;1.52;;;;;;;6.74;53.36;99951.25;5043849;28;20045;-73
2023/12/22 07:34:22;;;;;;;5.30;1.60;;;;;;;6.74;52.91;99953.97;5031808;28;20432;-72
2023/12/22 07:36:50;;;;;;;3.55;1.38;;;;;;;6.73;53.04;99926.84;5056943;28;20183;-71
2023/12/22 07:39:32;;;;;;;4.97;1.20;;;;;;;6.71;53.41;99917.97;5045245;28;20047;-73
2023/12/22 07:42:00;;;;;;;3.03;1.13;;;;;;;6.73;53.50;99929.56;5042346;28;20041;-71
2023/12/22 07:44:28;;;;;;;3.00;0.90;;;;;;;6.72;53.09;99938.72;5039049;28;20677;-74
2023/12/22 07:47:01;;;;;;;4.78;1.25;;;;;;;6.73;53.33;99943.19;5041524;28;20131;-72
2023/12/22 07:49:30;;;;;;;5.05;1.10;;;;;;;6.70;53.40;99944.28;5041426;28;20064;-71
2023/12/22 07:52:00;;;;;;;4.50;1.30;;;;;;;6.69;53.42;99937.16;5042639;28;20044;-74
2023/12/22 07:54:30;;;;;;;4.50;1.20;;;;;;;6.68;53.07;99940.88;5036796;28;20041;-74
2023/12/22 07:56:58;;;;;;;3.25;1.25;;;;;;;6.68;53.17;99937.28;5044384;28;20041;-74
2023/12/22 07:59:26;;;;;;;7.60;1.80;;;;;;;6.66;53.42;99948.28;5041217;28;20513;-72
2023/12/22 08:02:00;;;;;;;6.03;1.80;;;;;;;6.66;53.70;99952.84;5038323;28;20041;-75
2023/12/22 08:04:28;;;;;;;5.97;1.65;;;;;;;6.64;53.50;99944.81;5031232;28;20041;-73
2023/12/22 08:06:57;;;;;;;5.00;1.90;;;;;;;6.65;53.79;99957.44;5046647;28;20053;-72
2023/12/22 08:09:25;;;;;;;6.65;1.65;;;;;;;6.64;53.77;99947.53;5046462;28;20507;-72
2023/12/22 08:11:56;;;;;;;5.47;1.83;;;;;;;6.64;54.07;99946.69;5037755;28;20048;-72
2023/12/22 08:14:24;;;;;;;9.93;2.63;;;;;;;6.64;54.09;99933.94;5047049;28;20106;-72
2023/12/22 08:16:52;;;;;;;10.77;3.15;;;;;;;6.65;53.93;99932.97;5047309;28;20041;-71
2023/12/22 08:19:22;;;;;;;10.57;3.50;;;;;;;6.67;54.00;99941.84;5042980;28;20504;-72
2023/12/22 08:21:56;;;;;;;10.85;4.15;;;;;;;6.67;54.44;99944.56;5022940;28;20640;-72
2023/12/22 08:24:25;;;;;;;12.93;4.68;;;;;;;6.68;54.26;99938.16;5045905;28;20072;-72
2023/12/22 08:26:54;;;;;;;12.38;4.57;;;;;;;6.69;54.43;99948.03;5045752;28;20504;-73
2023/12/22 08:29:22;;;;;;;14.65;6.03;;;;;;;6.70;54.56;99944.28;5045882;28;20048;-73
2023/12/22 08:31:50;;;;;;;13.48;4.93;;;;;;;6.72;54.33;99944.16;5044658;28;20060;-73
2023/12/22 08:34:18;;;;;;;12.23;4.93;;;;;;;6.73;54.44;99957.63;5043784;28;20531;-73
2023/12/22 08:36:47;;;;;;;10.75;3.95;;;;;;;6.77;54.69;99952.84;5039257;28;20087;-73
2023/12/22 08:39:15;;;;;;;12.13;3.92;;;;;;;6.78;54.74;99952.69;5045475;28;20033;-73
2023/12/22 08:41:43;;;;;;;9.90;3.00;;;;;;;6.79;54.54;99959.84;5054474;28;20053;-73
2023/12/22 08:44:14;;;;;;;11.30;3.15;;;;;;;6.81;54.80;99966.03;5046176;28;20724;-73
2023/12/22 08:46:42;;;;;;;10.75;3.00;;;;;;;6.82;54.94;99965.03;5047706;28;20041;-73
2023/12/22 08:49:10;;;;;;;8.25;2.33;;;;;;;6.85;54.62;99960.34;5049506;28;20036;-73
2023/12/22 08:51:39;;;;;;;11.52;2.65;;;;;;;6.86;54.77;99945.75;5050188;28;20102;-71
2023/12/22 08:54:08;;;;;;;7.90;2.40;;;;;;;6.90;54.72;99953.50;5050246;28;20041;-73
2023/12/22 08:56:36;;;;;;;9.07;2.88;;;;;;;6.90;55.16;99942.63;5050604;28;20126;-73
2023/12/22 08:59:04;;;;;;;8.82;2.30;;;;;;;6.93;54.97;99946.94;5049877;28;20044;-71
2023/12/22 09:01:32;;;;;;;9.18;2.53;;;;;;;6.96;54.86;99941.22;5048335;28;20041;-73
2023/12/22 09:04:01;;;;;;;9.43;2.50;;;;;;;6.97;55.15;99941.06;5052018;28;20120;-73
2023/12/22 09:06:29;;;;;;;11.95;2.70;;;;;;;6.98;55.16;99937.38;5051691;28;20073;-73
2023/12/22 09:08:57;;;;;;;9.55;2.38;;;;;;;7.02;55.13;99930.69;5050855;28;20048;-73
2023/12/22 09:11:26;;;;;;;9.32;2.47;;;;;;;7.03;54.96;99924.22;5036158;28;20041;-73
2023/12/22 09:13:54;;;;;;;13.48;2.53;;;;;;;7.05;54.91;99929.53;5040801;28;20073;-73
2023/12/22 09:16:23;;;;;;;13.30;3.38;;;;;;;7.07;54.91;99914.81;5049978;28;20504;-73
2023/12/22 09:18:52;;;;;;;11.25;2.78;;;;;;;7.08;55.02;99913.81;5048871;28;20484;-74
2023/12/22 09:21:21;;;;;;;7.07;2.20;;;;;;;7.11;54.92;99921.69;5048380;28;20041;-73
2023/12/22 09:23:50;;;;;;;11.20;2.40;;;;;;;7.12;55.20;99926.13;5050308;28;20056;-73
2023/12/22 09:26:18;;;;;;;11.63;2.40;;;;;;;7.13;55.08;99925.13;5048986;28;20116;-73
2023/12/22 09:28:49;;;;;;;10.93;2.60;;;;;;;7.16;54.98;99908.56;5050962;28;20451;-73
2023/12/22 09:31:17;;;;;;;10.82;2.45;;;;;;;7.17;54.98;99909.41;5049419;28;20128;-73
2023/12/22 09:33:45;;;;;;;12.30;2.78;;;;;;;7.19;55.20;99918.28;5048762;28;20096;-73
2023/12/22 09:36:13;;;;;;;8.95;2.97;;;;;;;7.20;55.29;99912.72;5048473;28;20463;-73
2023/12/22 09:38:41;;;;;;;10.30;3.13;;;;;;;7.22;55.22;99909.84;5048636;28;20052;-73
2023/12/22 09:41:10;;;;;;;13.18;2.55;;;;;;;7.23;55.45;99914.31;5048855;28;20504;-73
2023/12/22 09:43:39;;;;;;;9.82;2.40;;;;;;;7.25;55.33;99895.13;5048335;28;20045;-74
2023/12/22 09:46:11;;;;;;;10.75;2.58;;;;;;;7.28;55.54;99897.56;5049002;28;20130;-73
2023/12/22 09:48:40;;;;;;;10.52;2.75;;;;;;;7.28;55.40;99887.53;5049626;28;20041;-73
2023/12/22 09:51:09;;;;;;;8.32;2.53;;;;;;;7.31;55.25;99902.72;5048793;28;20134;-73
2023/12/22 09:53:39;;;;;;;10.90;2.88;;;;;;;7.31;55.39;99881.81;5048262;28;20486;-73
2023/12/22 09:56:08;;;;;;;10.80;2.80;;;;;;;7.31;55.51;99889.13;5048234;28;20059;-73
2023/12/22 09:58:38;;;;;;;10.57;2.80;;;;;;;7.33;55.56;99884.41;5050729;28;20045;-74
2023/12/22 10:01:07;;;;;;;10.80;2.45;;;;;;;7.33;55.40;99890.72;5050122;28;20045;-73
2023/12/22 10:03:38;;;;;;;11.18;2.85;;;;;;;7.35;55.21;99891.44;5050952;28;20041;-73
2023/12/22 10:06:06;;;;;;;14.13;3.33;;;;;;;7.34;55.32;99883.41;5065516;28;20131;-73
2023/12/22 10:08:35;;;;;;;11.82;2.22;;;;;;;7.36;55.45;99873.22;5045840;28;20075;-73
2023/12/22 10:11:04;;;;;;;8.75;2.47;;;;;;;7.38;55.67;99888.44;5049609;28;20135;-73
2023/12/22 10:13:36;;;;;;;9.23;2.80;;;;;;;7.39;55.45;99881.13;5046810;28;20095;-74
2023/12/22 10:16:06;;;;;;;8.80;2.60;;;;;;;7.37;55.68;99875.81;5050800;28;20045;-73
2023/12/22 10:18:35;;;;;;;7.00;2.55;;;;;;;7.41;55.46;99873.69;5047778;28;20053;-73
2023/12/22 10:21:04;;;;;;;10.13;2.30;;;;;;;7.41;55.93;99873.69;5048534;28;20048;-73
2023/12/22 10:23:32;;;;;;;7.70;2.33;;;;;;;7.42;55.44;99869.97;5050980;28;20118;-73
2023/12/22 10:26:00;;;;;;;5.28;2.13;;;;;;;7.43;55.84;99878.00;5065444;28;20044;-73
2023/12/22 10:28:29;;;;;;;6.78;2.00;;;;;;;7.43;55.58;99869.84;5050108;28;20049;-73
2023/12/22 10:31:03;;;;;;;5.75;2.17;;;;;;;7.45;55.71;99872.41;5050065;28;20049;-73
2023/12/22 10:33:32;;;;;;;7.63;2.10;;;;;;;7.46;56.21;99865.97;5050754;28;20048;-73
2023/12/22 10:36:01;;;;;;;6.13;1.75;;;;;;;7.49;55.93;99855.69;5049642;28;20040;-73
2023/12/22 10:38:33;;;;;;;6.72;1.77;;;;;;;7.50;56.13;99851.09;5065158;28;20041;-73
2023/12/22 10:41:02;;;;;;;5.70;1.70;;;;;;;7.48;56.36;99853.09;5049169;28;20040;-73
2023/12/22 10:43:30;;;;;;;5.22;1.92;;;;;;;7.52;56.28;99851.78;5047311;28;20048;-73
2023/12/22 10:45:58;;;;;;;6.50;1.63;;;;;;;7.52;56.01;99855.38;5049202;28;20111;-73
2023/12/22 10:48:26;;;;;;;5.28;1.70;;;;;;;7.54;55.96;99850.66;5047887;28;20095;-73
2023/12/22 10:50:54;;;;;;;5.15;1.80;;;;;;;7.55;56.30;99852.38;5046913;28;20083;-73
2023/12/22 10:53:24;;;;;;;5.00;1.73;;;;;;;7.57;56.31;99858.56;5045071;28;20443;-74
2023/12/22 10:55:51;;;;;;;4.35;1.63;;;;;;;7.56;56.41;99859.56;5040457;28;20048;-74
2023/12/22 10:58:19;;;;;;;4.72;1.77;;;;;;;7.58;56.43;99851.25;5048178;28;20048;-74
2023/12/22 11:00:51;;;;;;;3.85;1.70;;;;;;;7.60;56.44;99848.41;5039367;28;20042;-74
2023/12/22 11:03:25;;;;;;;4.18;1.48;;;;;;;7.58;56.96;99849.41;5046783;28;20123;-73
2023/12/22 11:05:55;;;;;;;5.00;1.30;;;;;;;7.60;56.75;99842.94;5045769;28;20086;-74
2023/12/22 11:08:27;;;;;;;3.85;1.45;;;;;;;7.64;56.56;99839.78;5048428;28;20033;-73
2023/12/22 11:10:59;;;;;;;3.65;1.50;;;;;;;7.65;57.00;99843.38;5048247;28;20040;-74
2023/12/22 11:13:27;;;;;;;4.00;1.50;;;;;;;7.62;56.53;99840.94;5048677;28;20128;-73
2023/12/22 11:15:59;;;;;;;3.75;1.50;;;;;;;7.66;57.03;99842.38;5041345;28;20978;-73
2023/12/22 11:18:27;;;;;;;3.47;1.33;;;;;;;7.67;56.83;99850.41;5047330;28;20092;-73
2023/12/22 11:20:56;;;;;;;4.13;1.52;;;;;;;7.68;57.07;99841.25;5041578;28;20067;-74
2023/12/22 11:23:26;;;;;;;5.55;1.60;;;;;;;7.72;56.78;99848.13;5046847;28;20045;-74
2023/12/22 11:25:54;;;;;;;4.38;1.40;;;;;;;7.74;56.96;99848.00;5032985;28;20056;-73
2023/12/22 11:28:24;;;;;;;3.70;1.55;;;;;;;7.75;56.88;99849.72;5034063;28;20037;-73
2023/12/22 11:30:53;;;;;;;4.00;1.42;;;;;;;7.77;57.36;99859.44;5041305;28;20048;-74
2023/12/22 11:33:27;;;;;;;3.28;1.33;;;;;;;7.79;56.76;99862.03;5047057;28;20427;-74
2023/12/22 11:35:57;;;;;;;3.17;1.30;;;;;;;7.81;57.34;99850.00;5025083;28;20518;-73
2023/12/22 11:38:26;;;;;;;3.42;1.17;;;;;;;7.84;57.17;99837.97;5041529;28;20045;-69
2023/12/22 11:40:55;;;;;;;3.80;1.70;;;;;;;7.85;57.03;99843.25;5043680;28;20053;-71
2023/12/22 11:43:23;;;;;;;3.13;1.20;;;;;;;7.86;57.44;99841.41;5044880;28;20049;-72
2023/12/22 11:45:51;;;;;;;3.53;1.25;;;;;;;7.89;57.09;99838.41;5047439;28;20136;-72
2023/12/22 11:48:20;;;;;;;2.50;1.08;;;;;;;7.90;57.14;99840.97;5044389;28;20040;-73